アンカレッジ/テッド・スティーブンス の空港の天気 - METARとTAF

テッド・スティーブンス・アンカレッジ国際空港 ( PANC / ANC ) - アメリカ アラスカ州アンカレッジ
飛行場実況気象(Metar)
観測時間05/28 00:53 AKDT (05/28 08:53 UTC)
風向・風速南南西 2m/s
視程10km以上
天気現象
なし
気温12.2℃
湿度47%
気圧1009.3hPa
METARPANC 280853Z 21004KT 10SM CLR 12/01 A2980 RMK AO2 SLP093 T01220011 402390061 53008 $
過去の天気等 Google飛行場航空写真 Wunderground天気予報

過去48時間のMETAR

飛行場予報(TAF)
発表時間: 5/27 21:20 AKDT (5/28 05:20 UTC)
予報対象時間: 27日22時 AKDT ~ 29日4時 AKDT
風向・風速北北西 4m/s
視程10km以上
なし
27日22時 AKDT ~ 28日2時 AKDT に一時的に
風向・風速北北西 5m/s 瞬間風速 9m/s
28日14時 AKDT から
風向・風速西南西 4m/s
視程10km以上
なし
PANC 280520Z 2806/2912 34008KT P6SM SKC
TEMPO 2806/2810 34010G18KT
FM282200 25007KT P6SM SKC